createdAt,value
2023-04-27T00:02:25.859Z,66.46
2023-04-27T00:04:56.554Z,66.26
2023-04-27T00:07:29.201Z,66.49
2023-04-27T00:09:59.314Z,66.36
2023-04-27T00:12:29.210Z,66.45
2023-04-27T00:14:59.308Z,66.23
2023-04-27T00:17:29.308Z,66.13
2023-04-27T00:19:59.220Z,66.37
2023-04-27T00:22:32.017Z,66.46
2023-04-27T00:25:01.973Z,66.33
2023-04-27T00:27:31.869Z,66.54
2023-04-27T00:30:01.994Z,66.70
2023-04-27T00:32:31.861Z,66.70
2023-04-27T00:35:01.859Z,66.70
2023-04-27T00:37:34.384Z,67.11
2023-04-27T00:40:04.488Z,67.00
2023-04-27T00:42:34.436Z,67.23
2023-04-27T00:45:05.478Z,67.18
2023-04-27T00:47:36.070Z,67.47
2023-04-27T00:50:08.848Z,67.64
2023-04-27T00:52:41.748Z,67.94
2023-04-27T00:55:12.248Z,67.82
2023-04-27T00:57:42.317Z,68.11
2023-04-27T01:00:13.575Z,67.55
2023-04-27T01:02:44.443Z,67.98
2023-04-27T01:05:15.298Z,68.27
2023-04-27T01:07:48.161Z,68.31
2023-04-27T01:10:18.280Z,68.48
2023-04-27T01:12:48.764Z,68.57
2023-04-27T01:15:19.091Z,68.78
2023-04-27T01:17:49.292Z,68.87
2023-04-27T01:20:20.132Z,68.67
2023-04-27T01:22:52.662Z,68.93
2023-04-27T01:25:25.463Z,68.94
2023-04-27T01:27:55.455Z,68.86
2023-04-27T01:30:25.579Z,68.97
2023-04-27T01:32:58.144Z,68.87
2023-04-27T01:35:28.489Z,69.18
2023-04-27T01:38:00.344Z,69.16
2023-04-27T01:40:33.009Z,69.34
2023-04-27T01:43:03.498Z,69.63
2023-04-27T01:45:36.058Z,69.77
2023-04-27T01:48:06.544Z,69.41
2023-04-27T01:50:36.607Z,69.36
2023-04-27T01:53:06.458Z,69.60
2023-04-27T01:55:39.048Z,69.76
2023-04-27T01:58:08.921Z,69.75
2023-04-27T02:00:38.680Z,69.60
2023-04-27T02:03:09.031Z,69.65
2023-04-27T02:05:38.988Z,69.78
2023-04-27T02:08:09.158Z,69.97
2023-04-27T02:10:41.829Z,70.37
2023-04-27T02:13:12.727Z,69.94
2023-04-27T02:15:42.832Z,70.21
2023-04-27T02:18:13.026Z,70.24
2023-04-27T02:20:42.895Z,70.37
2023-04-27T02:23:13.215Z,70.22
2023-04-27T02:25:47.178Z,70.48
2023-04-27T02:28:17.341Z,70.71
2023-04-27T02:30:48.304Z,70.62
2023-04-27T02:33:18.464Z,70.66
2023-04-27T02:35:48.363Z,70.52
2023-04-27T02:38:18.456Z,70.41
2023-04-27T02:40:56.917Z,70.79
2023-04-27T02:43:26.974Z,70.64
2023-04-27T02:45:56.792Z,70.63
2023-04-27T02:48:27.224Z,70.71
2023-04-27T02:50:57.848Z,70.79
2023-04-27T02:53:28.052Z,70.85
2023-04-27T02:56:01.813Z,70.79
2023-04-27T02:58:32.260Z,70.93
2023-04-27T03:01:04.027Z,71.09
2023-04-27T03:03:33.962Z,71.03
2023-04-27T03:06:04.181Z,71.25
2023-04-27T03:08:34.147Z,71.19
2023-04-27T03:11:06.642Z,71.46
2023-04-27T03:13:42.164Z,71.28
2023-04-27T03:16:13.940Z,71.32
2023-04-27T03:18:44.023Z,71.36
2023-04-27T03:21:17.036Z,71.68
2023-04-27T03:23:47.084Z,71.74
2023-04-27T03:26:20.702Z,71.88
2023-04-27T03:28:50.729Z,71.79
2023-04-27T03:31:20.743Z,71.80
2023-04-27T03:33:50.900Z,72.05
2023-04-27T03:36:21.183Z,71.94
2023-04-27T03:38:51.045Z,72.12
2023-04-27T03:41:23.776Z,72.22
2023-04-27T03:43:53.773Z,72.26
2023-04-27T03:46:23.729Z,72.20
2023-04-27T03:48:53.562Z,72.22
2023-04-27T03:51:23.636Z,72.10
2023-04-27T03:53:53.569Z,71.94
2023-04-27T03:56:26.302Z,72.20
2023-04-27T03:58:56.117Z,72.31
2023-04-27T04:01:26.520Z,72.11
2023-04-27T04:03:56.764Z,72.31
2023-04-27T04:06:28.264Z,72.46
2023-04-27T04:08:58.765Z,72.49
2023-04-27T04:11:31.425Z,72.78
2023-04-27T04:14:01.366Z,72.59
2023-04-27T04:16:31.347Z,72.57
2023-04-27T04:19:01.365Z,72.54
2023-04-27T04:21:32.230Z,72.61
2023-04-27T04:24:02.331Z,72.64
2023-04-27T04:26:35.701Z,72.95
2023-04-27T04:29:05.680Z,72.86
2023-04-27T04:31:36.799Z,72.87
2023-04-27T04:34:10.465Z,73.17
2023-04-27T04:36:40.777Z,72.87
2023-04-27T04:39:10.936Z,73.03
2023-04-27T04:41:43.616Z,73.72
2023-04-27T04:44:13.736Z,73.40
2023-04-27T04:46:43.663Z,73.43
2023-04-27T04:49:14.000Z,73.82
2023-04-27T04:51:45.875Z,73.70
2023-04-27T04:54:16.068Z,73.72
2023-04-27T04:56:51.485Z,73.78
2023-04-27T04:59:21.474Z,73.63
2023-04-27T05:01:51.483Z,73.80
2023-04-27T05:04:21.573Z,73.52
2023-04-27T05:06:51.514Z,74.05
2023-04-27T05:09:21.523Z,73.94
2023-04-27T05:11:54.154Z,74.12
2023-04-27T05:14:24.116Z,74.02
2023-04-27T05:16:53.973Z,74.38
2023-04-27T05:19:25.000Z,74.52
2023-04-27T05:21:54.899Z,74.63
2023-04-27T05:24:24.829Z,75.03
2023-04-27T05:26:57.506Z,75.53
2023-04-27T05:29:27.521Z,75.14
2023-04-27T05:31:57.595Z,75.63
2023-04-27T05:34:27.609Z,75.74
2023-04-27T05:36:57.575Z,75.87
2023-04-27T05:39:28.098Z,75.90
2023-04-27T05:42:00.495Z,76.37
2023-04-27T05:44:30.350Z,76.18
2023-04-27T05:47:00.209Z,76.39
2023-04-27T05:49:30.095Z,76.59
2023-04-27T05:51:59.989Z,76.91
2023-04-27T05:54:30.333Z,77.21
2023-04-27T05:57:02.822Z,79.69
2023-04-27T05:59:33.014Z,78.22
2023-04-27T06:02:03.196Z,78.41
2023-04-27T06:04:33.543Z,78.35
2023-04-27T06:07:04.302Z,77.98
2023-04-27T06:09:34.460Z,79.19
2023-04-27T06:12:07.514Z,78.75
2023-04-27T06:14:39.459Z,78.26
2023-04-27T06:17:09.362Z,78.36
2023-04-27T06:19:39.561Z,79.05
2023-04-27T06:22:09.454Z,78.36
2023-04-27T06:24:39.455Z,77.84
2023-04-27T06:27:12.034Z,78.47
2023-04-27T06:29:42.084Z,77.56
2023-04-27T06:32:12.064Z,77.23
2023-04-27T06:34:42.103Z,76.62
2023-04-27T06:37:12.011Z,75.66
2023-04-27T06:39:42.432Z,74.95
2023-04-27T06:42:15.426Z,73.08
2023-04-27T06:44:45.735Z,73.33
2023-04-27T06:47:15.757Z,68.90
2023-04-27T06:49:46.958Z,71.54
2023-04-27T06:52:17.984Z,68.85
2023-04-27T06:54:47.910Z,67.78
2023-04-27T06:57:20.574Z,67.58
2023-04-27T06:59:50.596Z,68.60
2023-04-27T07:02:20.699Z,67.09
2023-04-27T07:04:51.565Z,67.01
2023-04-27T07:07:21.419Z,67.26
2023-04-27T07:09:51.352Z,64.12
2023-04-27T07:12:23.805Z,65.22
2023-04-27T07:14:53.705Z,65.57
2023-04-27T07:17:23.747Z,64.00
2023-04-27T07:19:53.828Z,63.44
2023-04-27T07:22:24.116Z,62.67
2023-04-27T07:24:54.187Z,61.61
2023-04-27T07:27:26.781Z,60.03
2023-04-27T07:29:56.895Z,61.24
2023-04-27T07:32:27.076Z,61.60
2023-04-27T07:34:58.932Z,60.69
2023-04-27T07:37:29.077Z,59.27
2023-04-27T07:39:59.840Z,57.14
2023-04-27T07:42:32.430Z,57.48
2023-04-27T07:45:02.601Z,58.04
2023-04-27T07:47:32.626Z,58.26
2023-04-27T07:50:02.727Z,56.92
2023-04-27T07:52:32.728Z,55.75
2023-04-27T07:55:04.054Z,52.19
2023-04-27T07:57:36.679Z,54.64
2023-04-27T08:00:11.534Z,55.14
2023-04-27T08:02:41.617Z,52.19
2023-04-27T08:05:12.562Z,52.95
2023-04-27T08:07:44.949Z,53.22
2023-04-27T08:10:15.524Z,53.93
2023-04-27T08:12:48.146Z,49.90
2023-04-27T08:15:18.290Z,52.23
2023-04-27T08:17:48.580Z,52.64
2023-04-27T08:20:18.538Z,45.63
2023-04-27T08:22:48.391Z,47.74
2023-04-27T08:25:18.331Z,48.71
2023-04-27T08:27:50.926Z,48.83
2023-04-27T08:30:21.476Z,49.64
2023-04-27T08:32:51.957Z,49.76
2023-04-27T08:35:22.148Z,42.40
2023-04-27T08:37:52.942Z,45.52
2023-04-27T08:40:25.050Z,47.78
2023-04-27T08:43:02.412Z,48.07
2023-04-27T08:45:32.254Z,47.82
2023-04-27T08:48:04.016Z,47.17
2023-04-27T08:50:34.059Z,46.36
2023-04-27T08:53:03.849Z,46.87
2023-04-27T08:55:34.107Z,47.01
2023-04-27T08:58:06.857Z,45.66
2023-04-27T09:00:42.873Z,45.93
2023-04-27T09:03:22.969Z,42.87
2023-04-27T09:06:04.491Z,44.34
2023-04-27T09:08:46.565Z,43.09
2023-04-27T09:11:17.316Z,44.65
2023-04-27T09:13:49.873Z,41.37
2023-04-27T09:16:26.774Z,42.26
2023-04-27T09:18:57.049Z,44.23
2023-04-27T09:21:28.207Z,43.38
2023-04-27T09:23:58.687Z,41.95
2023-04-27T09:26:32.067Z,41.66
2023-04-27T09:29:04.611Z,38.44
2023-04-27T09:31:35.688Z,41.20
2023-04-27T09:34:07.201Z,41.48
2023-04-27T09:36:37.589Z,41.50
2023-04-27T09:39:07.739Z,39.90
2023-04-27T09:41:38.400Z,40.92
2023-04-27T09:44:11.488Z,39.64
2023-04-27T09:46:41.768Z,36.62
2023-04-27T09:49:12.304Z,36.17
2023-04-27T09:51:42.616Z,39.35
2023-04-27T09:54:16.392Z,40.57
2023-04-27T09:56:57.859Z,37.02
2023-04-27T09:59:44.665Z,36.91
2023-04-27T10:02:25.158Z,40.17
2023-04-27T10:05:17.449Z,35.02
2023-04-27T10:07:49.050Z,39.00
2023-04-27T10:10:21.396Z,39.00
2023-04-27T10:13:00.752Z,37.87
2023-04-27T10:15:33.569Z,37.35
2023-04-27T10:18:08.974Z,36.56
2023-04-27T10:20:41.145Z,38.06
2023-04-27T10:23:11.251Z,37.43
2023-04-27T10:25:43.310Z,35.91
2023-04-27T10:28:19.313Z,36.11
2023-04-27T10:30:52.217Z,36.86
2023-04-27T10:33:25.212Z,35.69
2023-04-27T10:36:00.573Z,33.28
2023-04-27T10:38:33.330Z,34.72
2023-04-27T10:41:05.783Z,35.69
2023-04-27T10:43:38.076Z,35.61
2023-04-27T10:46:15.660Z,36.10
2023-04-27T10:48:46.815Z,36.21
2023-04-27T10:51:19.529Z,35.28
2023-04-27T10:53:55.086Z,35.59
2023-04-27T10:56:25.126Z,36.19
2023-04-27T10:58:55.117Z,34.89
2023-04-27T11:01:30.778Z,34.60
2023-04-27T11:04:01.783Z,35.02
2023-04-27T11:06:33.473Z,35.20
2023-04-27T11:09:04.706Z,33.39
2023-04-27T11:11:34.620Z,34.76
2023-04-27T11:14:04.674Z,34.76
2023-04-27T11:16:37.861Z,34.33
2023-04-27T11:19:08.237Z,34.57
2023-04-27T11:21:38.217Z,33.77
2023-04-27T11:24:10.546Z,31.82
2023-04-27T11:26:41.493Z,34.03
2023-04-27T11:29:14.536Z,34.24
2023-04-27T11:31:49.842Z,33.52
2023-04-27T11:34:22.863Z,33.10
2023-04-27T11:37:17.350Z,33.68
2023-04-27T11:39:48.851Z,35.07
2023-04-27T11:42:20.905Z,34.00
2023-04-27T11:44:56.109Z,32.38
2023-04-27T11:47:31.189Z,32.50
2023-04-27T11:50:02.526Z,31.26
2023-04-27T11:52:32.985Z,31.71
2023-04-27T11:55:04.241Z,31.95
2023-04-27T11:57:36.124Z,32.90
2023-04-27T12:00:11.655Z,33.11
2023-04-27T12:02:45.725Z,32.70
2023-04-27T12:05:16.639Z,32.37
2023-04-27T12:07:46.896Z,32.94
2023-04-27T12:10:16.735Z,32.97
2023-04-27T12:12:47.059Z,33.55
2023-04-27T12:15:17.174Z,32.86
2023-04-27T12:17:50.190Z,32.16
2023-04-27T12:20:20.101Z,33.79
2023-04-27T12:22:50.417Z,32.78
2023-04-27T12:25:21.510Z,31.23
2023-04-27T12:27:51.345Z,30.94
2023-04-27T12:30:21.706Z,31.90
2023-04-27T12:32:56.974Z,31.13
2023-04-27T12:35:26.867Z,31.17
2023-04-27T12:37:56.689Z,32.23
2023-04-27T12:40:26.618Z,32.22
2023-04-27T12:42:57.140Z,32.92
2023-04-27T12:45:28.520Z,31.82
2023-04-27T12:48:03.520Z,32.10
2023-04-27T12:50:34.815Z,32.26
2023-04-27T12:53:07.833Z,29.64
2023-04-27T12:55:37.805Z,29.94
2023-04-27T12:58:08.155Z,30.72
2023-04-27T13:00:38.713Z,30.23
2023-04-27T13:03:12.282Z,30.85
2023-04-27T13:05:42.500Z,30.83
2023-04-27T13:08:12.345Z,28.68
2023-04-27T13:10:45.167Z,31.11
2023-04-27T13:13:15.098Z,31.71
2023-04-27T13:15:44.952Z,30.66
2023-04-27T13:18:17.540Z,30.59
2023-04-27T13:20:48.171Z,30.62
2023-04-27T13:23:17.966Z,29.53
2023-04-27T13:25:47.907Z,31.17
2023-04-27T13:28:17.755Z,31.01
2023-04-27T13:30:49.016Z,30.86
2023-04-27T13:33:23.652Z,28.48
2023-04-27T13:35:53.834Z,30.60
2023-04-27T13:38:23.659Z,30.37
2023-04-27T13:40:53.585Z,27.91
2023-04-27T13:43:23.334Z,27.42
2023-04-27T13:45:55.410Z,28.10
2023-04-27T13:48:27.982Z,29.70
2023-04-27T13:50:58.369Z,29.90
2023-04-27T13:53:28.461Z,29.76
2023-04-27T13:55:59.511Z,28.36
2023-04-27T13:58:31.090Z,28.64
2023-04-27T14:01:01.788Z,29.40
2023-04-27T14:03:34.428Z,30.39
2023-04-27T14:06:04.492Z,29.97
2023-04-27T14:08:34.659Z,30.86
2023-04-27T14:11:06.016Z,29.41
2023-04-27T14:13:35.952Z,28.86
2023-04-27T14:16:06.766Z,28.76
2023-04-27T14:18:39.567Z,30.39
2023-04-27T14:21:09.590Z,30.50
2023-04-27T14:23:39.578Z,30.15
2023-04-27T14:26:10.695Z,30.54
2023-04-27T14:28:40.926Z,30.56
2023-04-27T14:31:10.931Z,30.98
2023-04-27T14:33:43.884Z,29.70
2023-04-27T14:36:13.970Z,29.75
2023-04-27T14:38:43.802Z,30.00
2023-04-27T14:41:13.781Z,29.74
2023-04-27T14:43:45.007Z,29.39
2023-04-27T14:46:20.848Z,29.78
2023-04-27T14:48:53.922Z,28.64
2023-04-27T14:51:24.022Z,29.47
2023-04-27T14:53:53.978Z,29.86
2023-04-27T14:56:24.478Z,29.04
2023-04-27T14:58:55.508Z,30.48
2023-04-27T15:01:25.938Z,30.29
2023-04-27T15:03:59.092Z,29.96
2023-04-27T15:06:30.585Z,31.34
2023-04-27T15:09:00.820Z,30.64
2023-04-27T15:11:30.770Z,31.46
2023-04-27T15:14:00.651Z,29.57
2023-04-27T15:16:30.842Z,31.24
2023-04-27T15:19:03.786Z,30.69
2023-04-27T15:21:34.435Z,30.77
2023-04-27T15:24:04.508Z,28.88
2023-04-27T15:26:37.219Z,30.52
2023-04-27T15:29:07.464Z,30.38
2023-04-27T15:31:37.784Z,31.07
2023-04-27T15:34:10.384Z,30.12
2023-04-27T15:36:40.271Z,31.29
2023-04-27T15:39:10.369Z,31.44
2023-04-27T15:41:40.973Z,31.09
2023-04-27T15:44:10.985Z,30.33
2023-04-27T15:46:40.975Z,30.76
2023-04-27T15:49:14.354Z,30.33
2023-04-27T15:51:44.578Z,30.97
2023-04-27T15:54:14.481Z,30.44
2023-04-27T15:56:44.370Z,30.48
2023-04-27T15:59:14.662Z,29.38
2023-04-27T16:01:44.677Z,29.68
2023-04-27T16:04:17.274Z,31.10
2023-04-27T16:06:47.254Z,31.48
2023-04-27T16:09:17.469Z,31.57
2023-04-27T16:11:47.949Z,32.05
2023-04-27T16:14:17.842Z,31.58
2023-04-27T16:16:48.305Z,32.65
2023-04-27T16:19:21.436Z,32.04
2023-04-27T16:21:51.337Z,32.22
2023-04-27T16:24:21.989Z,30.99
2023-04-27T16:26:51.907Z,31.50
2023-04-27T16:29:21.767Z,31.65
2023-04-27T16:31:54.386Z,31.85
2023-04-27T16:34:28.027Z,32.37
2023-04-27T16:37:01.379Z,31.92
2023-04-27T16:39:31.252Z,32.81
2023-04-27T16:42:01.145Z,32.32
2023-04-27T16:44:31.175Z,32.63
2023-04-27T16:47:01.174Z,32.87
2023-04-27T16:49:34.339Z,33.04
2023-04-27T16:52:04.731Z,32.89
2023-04-27T16:54:34.712Z,33.13
2023-04-27T16:57:04.824Z,32.73
2023-04-27T16:59:34.828Z,33.09
2023-04-27T17:02:17.004Z,33.38
2023-04-27T17:04:56.667Z,33.60
2023-04-27T17:07:28.730Z,32.94
2023-04-27T17:09:59.239Z,33.01
2023-04-27T17:12:29.224Z,33.53
2023-04-27T17:14:59.263Z,33.78
2023-04-27T17:17:29.219Z,33.90
2023-04-27T17:20:01.979Z,33.93
2023-04-27T17:22:33.180Z,33.57
2023-04-27T17:25:03.318Z,34.19
2023-04-27T17:27:33.388Z,34.21
2023-04-27T17:30:03.319Z,34.75
2023-04-27T17:32:33.335Z,34.67
2023-04-27T17:35:06.665Z,34.43
2023-04-27T17:37:36.561Z,34.96
2023-04-27T17:40:08.109Z,35.03
2023-04-27T17:42:38.075Z,34.83
2023-04-27T17:45:09.064Z,35.29
2023-04-27T17:47:39.014Z,35.21
2023-04-27T17:50:15.028Z,35.73
2023-04-27T17:52:44.997Z,35.62
2023-04-27T17:55:14.938Z,35.33
2023-04-27T17:57:44.844Z,35.13
2023-04-27T18:00:18.270Z,36.23
2023-04-27T18:02:50.068Z,36.04
2023-04-27T18:05:22.753Z,35.84
2023-04-27T18:07:52.643Z,36.37
2023-04-27T18:10:24.643Z,36.05
2023-04-27T18:12:54.592Z,36.38
2023-04-27T18:15:24.575Z,36.00
2023-04-27T18:17:55.519Z,36.45
2023-04-27T18:20:28.166Z,36.63
2023-04-27T18:22:58.003Z,37.65
2023-04-27T18:25:27.838Z,37.42
2023-04-27T18:27:58.113Z,37.36
2023-04-27T18:30:30.029Z,37.19
2023-04-27T18:33:00.242Z,37.52
2023-04-27T18:35:32.876Z,38.40
2023-04-27T18:38:03.679Z,38.24
2023-04-27T18:40:36.269Z,38.35
2023-04-27T18:43:06.477Z,38.39
2023-04-27T18:45:37.074Z,38.26
2023-04-27T18:48:07.901Z,38.40
2023-04-27T18:50:40.749Z,38.55
2023-04-27T18:53:11.609Z,38.90
2023-04-27T18:55:42.298Z,39.15
2023-04-27T18:58:12.360Z,39.42
2023-04-27T19:00:42.287Z,39.74
2023-04-27T19:03:12.594Z,39.61
2023-04-27T19:05:45.759Z,40.01
2023-04-27T19:08:15.882Z,39.74
2023-04-27T19:10:45.882Z,40.07
2023-04-27T19:13:16.098Z,39.95
2023-04-27T19:15:46.081Z,40.16
2023-04-27T19:18:16.083Z,39.82
2023-04-27T19:20:49.593Z,40.35
2023-04-27T19:23:20.203Z,40.18
2023-04-27T19:25:50.693Z,41.06
2023-04-27T19:28:23.609Z,40.65
2023-04-27T19:30:55.481Z,40.63
2023-04-27T19:33:25.417Z,40.82
2023-04-27T19:35:58.709Z,41.22
2023-04-27T19:38:28.640Z,41.23
2023-04-27T19:40:58.579Z,41.35
2023-04-27T19:43:29.424Z,41.55
2023-04-27T19:45:59.346Z,41.40
2023-04-27T19:48:29.278Z,41.90
2023-04-27T19:51:01.974Z,42.10
2023-04-27T19:53:31.856Z,42.31
2023-04-27T19:56:01.664Z,42.49
2023-04-27T19:58:34.859Z,42.38
2023-04-27T20:01:05.077Z,42.52
2023-04-27T20:03:35.759Z,42.29
2023-04-27T20:06:10.476Z,43.18
2023-04-27T20:08:40.532Z,43.01
2023-04-27T20:11:10.610Z,43.80
2023-04-27T20:13:40.515Z,43.74
2023-04-27T20:16:10.442Z,43.48
2023-04-27T20:18:40.372Z,43.20
2023-04-27T20:21:12.959Z,43.55
2023-04-27T20:23:43.109Z,43.59
2023-04-27T20:26:13.004Z,43.76
2023-04-27T20:28:42.904Z,43.64
2023-04-27T20:31:12.920Z,43.94
2023-04-27T20:33:42.839Z,44.41
2023-04-27T20:36:18.302Z,44.23
2023-04-27T20:38:49.096Z,44.42
2023-04-27T20:41:19.004Z,44.52
2023-04-27T20:43:49.028Z,44.34
2023-04-27T20:46:20.752Z,44.08
2023-04-27T20:48:51.037Z,43.23
2023-04-27T20:51:24.202Z,44.22
2023-04-27T20:53:54.054Z,44.43
2023-04-27T20:56:23.980Z,43.80
2023-04-27T20:58:53.791Z,43.87
2023-04-27T21:01:23.904Z,44.26
2023-04-27T21:03:54.162Z,44.42
2023-04-27T21:06:26.728Z,44.08
2023-04-27T21:08:57.730Z,44.52
2023-04-27T21:11:27.898Z,44.57
2023-04-27T21:13:57.753Z,43.50
2023-04-27T21:16:27.720Z,44.37
2023-04-27T21:18:57.924Z,43.81
2023-04-27T21:21:30.450Z,44.67
2023-04-27T21:24:07.348Z,43.61
2023-04-27T21:26:37.981Z,44.02
2023-04-27T21:29:08.649Z,43.71
2023-04-27T21:31:40.131Z,43.66
2023-04-27T21:34:10.403Z,44.08
2023-04-27T21:36:43.210Z,44.58
2023-04-27T21:39:13.266Z,44.83
2023-04-27T21:41:43.246Z,44.75
2023-04-27T21:44:13.350Z,44.67
2023-04-27T21:46:43.658Z,44.24
2023-04-27T21:49:13.664Z,44.77
2023-04-27T21:51:46.181Z,44.91
2023-04-27T21:54:16.571Z,44.73
2023-04-27T21:56:46.610Z,45.15
2023-04-27T21:59:16.726Z,45.50
2023-04-27T22:01:46.625Z,45.35
2023-04-27T22:04:17.098Z,45.28
2023-04-27T22:06:49.939Z,45.46
2023-04-27T22:09:20.196Z,45.78
2023-04-27T22:11:50.225Z,45.72
2023-04-27T22:14:20.171Z,46.29
2023-04-27T22:16:56.712Z,45.86
2023-04-27T22:19:26.966Z,46.04
2023-04-27T22:22:00.163Z,46.30
2023-04-27T22:24:30.205Z,46.01
2023-04-27T22:27:00.045Z,45.91
2023-04-27T22:29:31.633Z,46.27
2023-04-27T22:32:01.985Z,46.04
2023-04-27T22:34:32.190Z,46.27
2023-04-27T22:37:05.164Z,46.53
2023-04-27T22:39:35.390Z,46.30
2023-04-27T22:42:05.409Z,46.13
2023-04-27T22:44:35.638Z,46.66
2023-04-27T22:47:06.497Z,47.00
2023-04-27T22:49:37.505Z,46.94
2023-04-27T22:52:10.736Z,47.41
2023-04-27T22:54:40.912Z,46.92
2023-04-27T22:57:10.783Z,47.06
2023-04-27T22:59:41.061Z,46.79
2023-04-27T23:02:11.351Z,46.91
2023-04-27T23:04:41.411Z,47.11
2023-04-27T23:07:17.674Z,47.44
2023-04-27T23:09:48.387Z,47.77
2023-04-27T23:12:18.318Z,47.73
2023-04-27T23:14:48.478Z,47.71
2023-04-27T23:17:18.384Z,48.06
2023-04-27T23:19:49.006Z,47.90
2023-04-27T23:22:21.608Z,47.90
2023-04-27T23:24:52.038Z,47.99
2023-04-27T23:27:22.782Z,48.32
2023-04-27T23:29:52.948Z,48.46
2023-04-27T23:32:23.345Z,48.61
2023-04-27T23:34:56.180Z,49.01
2023-04-27T23:37:29.083Z,49.30
2023-04-27T23:39:58.902Z,49.50
2023-04-27T23:42:28.807Z,49.65
2023-04-27T23:44:58.682Z,50.08
2023-04-27T23:47:28.575Z,50.34
2023-04-27T23:50:01.387Z,50.56
2023-04-27T23:52:33.902Z,50.88
2023-04-27T23:55:03.942Z,50.81
2023-04-27T23:57:33.831Z,51.11
